createdAt,value
2023-02-27T00:00:53.158Z,102446.09
2023-02-27T00:03:20.108Z,102452.31
2023-02-27T00:05:46.826Z,102445.66
2023-02-27T00:08:13.614Z,102453.47
2023-02-27T00:10:40.401Z,102456.72
2023-02-27T00:13:07.228Z,102458.22
2023-02-27T00:15:34.131Z,102458.81
2023-02-27T00:18:01.111Z,102456.00
2023-02-27T00:20:28.663Z,102448.34
2023-02-27T00:22:55.168Z,102449.13
2023-02-27T00:25:21.752Z,102453.88
2023-02-27T00:27:48.455Z,102448.94
2023-02-27T00:30:15.715Z,102454.59
2023-02-27T00:32:42.666Z,102452.09
2023-02-27T00:35:10.334Z,102451.13
2023-02-27T00:37:37.296Z,102455.22
2023-02-27T00:40:05.330Z,102456.63
2023-02-27T00:42:32.241Z,102453.03
2023-02-27T00:44:58.848Z,102454.22
2023-02-27T00:47:25.276Z,102447.44
2023-02-27T00:49:51.840Z,102449.34
2023-02-27T00:52:18.223Z,102443.13
2023-02-27T00:54:45.058Z,102442.03
2023-02-27T00:57:11.721Z,102446.72
2023-02-27T00:59:38.259Z,102449.16
2023-02-27T01:02:05.267Z,102453.75
2023-02-27T01:04:31.769Z,102450.59
2023-02-27T01:06:58.251Z,102448.78
2023-02-27T01:09:25.000Z,102449.50
2023-02-27T01:11:51.861Z,102446.03
2023-02-27T01:14:18.380Z,102438.19
2023-02-27T01:16:44.811Z,102439.78
2023-02-27T01:19:11.446Z,102432.22
2023-02-27T01:21:38.143Z,102437.22
2023-02-27T01:24:04.788Z,102442.69
2023-02-27T01:26:31.302Z,102444.84
2023-02-27T01:28:57.768Z,102448.22
2023-02-27T01:31:26.054Z,102441.88
2023-02-27T01:33:53.689Z,102438.97
2023-02-27T01:36:20.772Z,102439.47
2023-02-27T01:38:47.596Z,102433.09
2023-02-27T01:41:14.320Z,102439.47
2023-02-27T01:43:57.725Z,102440.38
2023-02-27T01:46:24.645Z,102444.38
2023-02-27T01:48:54.398Z,102444.56
2023-02-27T01:51:21.595Z,102442.16
2023-02-27T01:53:49.286Z,102439.47
2023-02-27T01:56:20.655Z,102445.84
2023-02-27T01:58:48.842Z,102446.03
2023-02-27T02:01:16.242Z,102448.78
2023-02-27T02:03:45.765Z,102450.69
2023-02-27T02:06:12.793Z,102452.22
2023-02-27T02:08:42.033Z,102452.22
2023-02-27T02:11:09.215Z,102456.81
2023-02-27T02:13:37.158Z,102451.03
2023-02-27T02:16:18.881Z,102463.72
2023-02-27T02:18:51.496Z,102459.25
2023-02-27T02:21:24.362Z,102459.53
2023-02-27T02:23:57.401Z,102460.91
2023-02-27T02:26:39.248Z,102464.97
2023-02-27T02:29:09.648Z,102469.56
2023-02-27T02:31:54.546Z,102466.88
2023-02-27T02:34:33.201Z,102468.63
2023-02-27T02:37:18.418Z,102461.72
2023-02-27T02:39:58.815Z,102462.81
2023-02-27T02:42:27.219Z,102461.06
2023-02-27T02:45:05.773Z,102467.44
2023-02-27T02:47:35.712Z,102459.78
2023-02-27T02:50:20.904Z,102463.09
2023-02-27T02:53:06.016Z,102460.28
2023-02-27T02:55:34.748Z,102462.25
2023-02-27T02:58:20.102Z,102459.22
2023-02-27T03:00:56.756Z,102460.28
2023-02-27T03:03:28.480Z,102457.34
2023-02-27T03:05:57.977Z,102462.78
2023-02-27T03:08:30.824Z,102463.69
2023-02-27T03:11:03.763Z,102465.78
2023-02-27T03:13:37.484Z,102466.00
2023-02-27T03:16:07.029Z,102465.41
2023-02-27T03:18:56.791Z,102462.91
2023-02-27T03:21:37.700Z,102468.44
2023-02-27T03:24:07.195Z,102464.31
2023-02-27T03:26:35.247Z,102467.97
2023-02-27T03:29:04.361Z,102467.34
2023-02-27T03:31:38.495Z,102465.78
2023-02-27T03:34:31.501Z,102474.13
2023-02-27T03:36:58.398Z,102473.09
2023-02-27T03:39:25.092Z,102480.91
2023-02-27T03:42:11.893Z,102469.44
2023-02-27T03:44:52.354Z,102473.53
2023-02-27T03:47:19.841Z,102471.84
2023-02-27T03:49:46.548Z,102483.13
2023-02-27T03:52:14.059Z,102486.38
2023-02-27T03:54:45.413Z,102489.41
2023-02-27T03:57:15.145Z,102492.28
2023-02-27T03:59:42.458Z,102495.72
2023-02-27T04:02:09.440Z,102496.59
2023-02-27T04:04:35.991Z,102506.00
2023-02-27T04:07:23.881Z,102504.13
2023-02-27T04:09:50.474Z,102507.53
2023-02-27T04:12:16.883Z,102510.81
2023-02-27T04:14:50.790Z,102513.22
2023-02-27T04:17:21.829Z,102514.59
2023-02-27T04:19:59.811Z,102511.69
2023-02-27T04:22:27.486Z,102514.47
2023-02-27T04:25:03.216Z,102518.22
2023-02-27T04:27:39.164Z,102520.00
2023-02-27T04:30:14.825Z,102526.44
2023-02-27T04:32:47.478Z,102532.53
2023-02-27T04:35:34.619Z,102531.47
2023-02-27T04:38:04.343Z,102539.84
2023-02-27T04:40:38.338Z,102537.81
2023-02-27T04:43:07.580Z,102536.75
2023-02-27T04:45:35.632Z,102533.03
2023-02-27T04:48:05.854Z,102532.19
2023-02-27T04:50:45.469Z,102536.59
2023-02-27T04:53:18.301Z,102535.06
2023-02-27T04:55:50.195Z,102535.13
2023-02-27T04:58:32.263Z,102537.59
2023-02-27T05:01:01.808Z,102540.47
2023-02-27T05:03:32.882Z,102542.88
2023-02-27T05:06:00.984Z,102540.03
2023-02-27T05:08:48.853Z,102546.44
2023-02-27T05:11:18.289Z,102552.34
2023-02-27T05:13:47.761Z,102549.81
2023-02-27T05:16:19.785Z,102554.56
2023-02-27T05:18:46.900Z,102555.25
2023-02-27T05:21:33.619Z,102556.66
2023-02-27T05:24:12.456Z,102552.00
2023-02-27T05:27:06.514Z,102551.34
2023-02-27T05:29:56.295Z,102555.84
2023-02-27T05:32:30.970Z,102562.28
2023-02-27T05:34:58.488Z,102561.50
2023-02-27T05:37:34.093Z,102558.56
2023-02-27T05:40:09.101Z,102562.22
2023-02-27T05:42:43.712Z,102556.41
2023-02-27T05:45:15.184Z,102569.50
2023-02-27T05:47:44.966Z,102564.22
2023-02-27T05:50:19.875Z,102561.50
2023-02-27T05:52:49.633Z,102561.72
2023-02-27T05:55:22.726Z,102567.41
2023-02-27T05:57:54.163Z,102568.31
2023-02-27T06:00:37.053Z,102559.69
2023-02-27T06:03:03.778Z,102573.78
2023-02-27T06:05:30.492Z,102576.38
2023-02-27T06:07:57.905Z,102581.34
2023-02-27T06:10:24.980Z,102583.78
2023-02-27T06:12:51.643Z,102585.91
2023-02-27T06:15:20.076Z,102590.75
2023-02-27T06:17:46.657Z,102587.31
2023-02-27T06:20:13.106Z,102599.28
2023-02-27T06:22:40.206Z,102599.84
2023-02-27T06:25:07.054Z,102597.13
2023-02-27T06:27:33.585Z,102604.03
2023-02-27T06:30:00.108Z,102611.78
2023-02-27T06:32:26.639Z,102609.22
2023-02-27T06:34:53.498Z,102612.63
2023-02-27T06:37:21.719Z,102617.06
2023-02-27T06:39:48.304Z,102621.59
2023-02-27T06:42:15.212Z,102624.56
2023-02-27T06:44:42.614Z,102627.69
2023-02-27T06:47:09.417Z,102626.25
2023-02-27T06:49:35.959Z,102620.00
2023-02-27T06:52:02.412Z,102629.91
2023-02-27T06:54:29.338Z,102634.53
2023-02-27T06:56:56.522Z,102633.81
2023-02-27T06:59:22.946Z,102629.69
2023-02-27T07:01:49.750Z,102633.84
2023-02-27T07:04:16.629Z,102638.03
2023-02-27T07:07:35.711Z,102632.06
2023-02-27T07:09:30.476Z,102637.25
2023-02-27T07:11:57.060Z,102638.59
2023-02-27T07:14:23.390Z,102638.34
2023-02-27T07:16:53.951Z,102640.00
2023-02-27T07:19:24.441Z,102638.66
2023-02-27T07:21:50.994Z,102637.31
2023-02-27T07:24:17.600Z,102639.44
2023-02-27T07:26:43.962Z,102635.38
2023-02-27T07:29:10.437Z,102642.16
2023-02-27T07:31:36.923Z,102640.22
2023-02-27T07:34:03.754Z,102643.50
2023-02-27T07:36:33.492Z,102639.22
2023-02-27T07:39:00.006Z,102635.50
2023-02-27T07:41:30.619Z,102633.75
2023-02-27T07:43:57.870Z,102637.66
2023-02-27T07:46:27.822Z,102636.00
2023-02-27T07:48:54.827Z,102633.00
2023-02-27T07:51:21.974Z,102637.97
2023-02-27T07:53:48.655Z,102635.75
2023-02-27T07:56:15.711Z,102637.16
2023-02-27T07:58:42.191Z,102639.00
2023-02-27T08:01:08.729Z,102634.97
2023-02-27T08:03:35.338Z,102627.50
2023-02-27T08:06:02.422Z,102636.03
2023-02-27T08:08:29.589Z,102627.25
2023-02-27T08:10:56.372Z,102633.03
2023-02-27T08:13:35.972Z,102643.41
2023-02-27T08:16:09.619Z,102648.84
2023-02-27T08:18:36.114Z,102645.69
2023-02-27T08:21:04.908Z,102641.78
2023-02-27T08:23:34.469Z,102647.94
2023-02-27T08:26:01.759Z,102649.63
2023-02-27T08:28:28.413Z,102647.50
2023-02-27T08:30:55.649Z,102651.34
2023-02-27T08:33:22.708Z,102652.91
2023-02-27T08:35:49.244Z,102646.00
2023-02-27T08:38:15.967Z,102645.72
2023-02-27T08:40:43.623Z,102653.47
2023-02-27T08:43:10.177Z,102652.69
2023-02-27T08:45:37.097Z,102647.41
2023-02-27T08:48:03.723Z,102657.78
2023-02-27T08:50:30.418Z,102652.22
2023-02-27T08:52:57.074Z,102662.34
2023-02-27T08:55:23.682Z,102660.47
2023-02-27T08:57:50.141Z,102661.41
2023-02-27T09:00:18.083Z,102665.13
2023-02-27T09:02:44.720Z,102662.53
2023-02-27T09:05:11.443Z,102668.97
2023-02-27T09:07:38.129Z,102664.91
2023-02-27T09:10:07.239Z,102666.19
2023-02-27T09:12:33.733Z,102663.81
2023-02-27T09:15:00.298Z,102672.00
2023-02-27T09:17:27.028Z,102670.53
2023-02-27T09:19:55.899Z,102673.22
2023-02-27T09:22:23.770Z,102667.31
2023-02-27T09:24:51.187Z,102669.66
2023-02-27T09:27:17.850Z,102663.72
2023-02-27T09:29:44.649Z,102676.47
2023-02-27T09:32:11.484Z,102683.56
2023-02-27T09:34:39.286Z,102674.06
2023-02-27T09:37:05.731Z,102681.97
2023-02-27T09:39:32.485Z,102680.91
2023-02-27T09:42:07.621Z,102678.56
2023-02-27T09:44:47.696Z,102671.56
2023-02-27T09:47:16.907Z,102676.56
2023-02-27T09:49:57.557Z,102673.19
2023-02-27T09:52:24.230Z,102668.53
2023-02-27T09:54:51.190Z,102663.50
2023-02-27T09:57:23.668Z,102666.41
2023-02-27T10:00:16.582Z,102659.47
2023-02-27T10:03:02.052Z,102662.66
2023-02-27T10:05:35.641Z,102662.75
2023-02-27T10:08:06.875Z,102666.69
2023-02-27T10:10:46.206Z,102667.56
2023-02-27T10:13:31.520Z,102674.59
2023-02-27T10:15:59.956Z,102671.38
2023-02-27T10:18:46.820Z,102668.00
2023-02-27T10:21:16.092Z,102678.09
2023-02-27T10:23:46.600Z,102677.94
2023-02-27T10:26:21.643Z,102676.00
2023-02-27T10:28:48.540Z,102674.19
2023-02-27T10:31:22.656Z,102681.50
2023-02-27T10:33:51.870Z,102688.13
2023-02-27T10:36:32.515Z,102684.81
2023-02-27T10:39:02.905Z,102694.94
2023-02-27T10:41:30.693Z,102693.28
2023-02-27T10:43:58.958Z,102697.16
2023-02-27T10:46:27.677Z,102696.88
2023-02-27T10:48:54.812Z,102693.88
2023-02-27T10:51:31.806Z,102704.69
2023-02-27T10:54:17.303Z,102703.47
2023-02-27T10:56:55.959Z,102705.22
2023-02-27T10:59:40.467Z,102704.63
2023-02-27T11:02:21.684Z,102702.91
2023-02-27T11:04:55.108Z,102708.72
2023-02-27T11:07:32.777Z,102703.41
2023-02-27T11:10:01.173Z,102709.81
2023-02-27T11:12:29.535Z,102704.28
2023-02-27T11:14:57.407Z,102705.63
2023-02-27T11:17:32.821Z,102709.41
2023-02-27T11:20:01.334Z,102706.69
2023-02-27T11:22:29.739Z,102714.97
2023-02-27T11:25:17.136Z,102712.00
2023-02-27T11:27:46.024Z,102713.31
2023-02-27T11:30:31.784Z,102715.84
2023-02-27T11:33:01.078Z,102713.44
2023-02-27T11:35:33.152Z,102711.06
2023-02-27T11:38:07.785Z,102719.19
2023-02-27T11:40:37.224Z,102711.16
2023-02-27T11:43:05.965Z,102708.66
2023-02-27T11:46:05.022Z,102720.63
2023-02-27T11:48:31.065Z,102729.66
2023-02-27T11:51:09.658Z,102717.53
2023-02-27T11:53:48.492Z,102723.34
2023-02-27T11:56:17.621Z,102717.31
2023-02-27T11:58:52.399Z,102718.22
2023-02-27T12:01:25.454Z,102730.22
2023-02-27T12:04:01.743Z,102723.59
2023-02-27T12:06:43.659Z,102720.63
2023-02-27T12:09:21.900Z,102729.06
2023-02-27T12:11:50.102Z,102728.69
2023-02-27T12:14:33.248Z,102718.25
2023-02-27T12:17:04.779Z,102716.34
2023-02-27T12:19:38.517Z,102713.50
2023-02-27T12:22:09.632Z,102711.94
2023-02-27T12:24:36.267Z,102713.06
2023-02-27T12:27:13.868Z,102712.06
2023-02-27T12:29:43.887Z,102703.31
2023-02-27T12:32:26.081Z,102692.09
2023-02-27T12:35:15.799Z,102697.84
2023-02-27T12:37:42.601Z,102694.88
2023-02-27T12:40:14.761Z,102686.38
2023-02-27T12:42:59.717Z,102685.41
2023-02-27T12:45:45.291Z,102686.56
2023-02-27T12:48:12.208Z,102685.66
2023-02-27T12:50:53.341Z,102684.13
2023-02-27T12:53:27.416Z,102684.28
2023-02-27T12:56:12.685Z,102688.22
2023-02-27T12:58:56.018Z,102691.00
2023-02-27T13:01:37.850Z,102696.31
2023-02-27T13:04:18.258Z,102676.53
2023-02-27T13:06:50.242Z,102677.78
2023-02-27T13:09:21.130Z,102670.75
2023-02-27T13:12:03.241Z,102676.69
2023-02-27T13:14:32.866Z,102675.19
2023-02-27T13:17:02.521Z,102675.22
2023-02-27T13:19:32.365Z,102680.69
2023-02-27T13:22:17.986Z,102682.19
2023-02-27T13:24:48.765Z,102677.31
2023-02-27T13:27:28.927Z,102667.16
2023-02-27T13:30:06.115Z,102668.38
2023-02-27T13:32:44.325Z,102669.03
2023-02-27T13:35:24.020Z,102660.31
2023-02-27T13:37:54.410Z,102668.47
2023-02-27T13:40:32.851Z,102669.28
2023-02-27T13:43:02.140Z,102672.19
2023-02-27T13:45:48.581Z,102674.41
2023-02-27T13:48:42.385Z,102672.69
2023-02-27T13:51:11.242Z,102679.84
2023-02-27T13:53:39.367Z,102671.25
2023-02-27T13:56:23.585Z,102677.31
2023-02-27T13:58:50.905Z,102675.22
2023-02-27T14:01:19.985Z,102682.72
2023-02-27T14:03:58.700Z,102685.66
2023-02-27T14:06:26.407Z,102679.06
2023-02-27T14:09:08.789Z,102694.53
2023-02-27T14:11:42.973Z,102686.03
2023-02-27T14:14:30.181Z,102693.13
2023-02-27T14:16:57.719Z,102693.22
2023-02-27T14:19:25.824Z,102697.16
2023-02-27T14:21:54.523Z,102699.44
2023-02-27T14:24:24.473Z,102696.34
2023-02-27T14:26:52.693Z,102693.63
2023-02-27T14:29:31.287Z,102696.28
2023-02-27T14:32:01.008Z,102710.28
2023-02-27T14:34:28.285Z,102708.72
2023-02-27T14:36:56.779Z,102714.91
2023-02-27T14:39:26.432Z,102716.91
2023-02-27T14:41:56.323Z,102721.03
2023-02-27T14:44:28.576Z,102713.50
2023-02-27T14:46:58.258Z,102718.91
2023-02-27T14:49:35.924Z,102719.59
2023-02-27T14:52:21.362Z,102725.59
2023-02-27T14:54:49.624Z,102719.28
2023-02-27T14:57:19.100Z,102721.53
2023-02-27T14:59:48.447Z,102719.88
2023-02-27T15:02:44.947Z,102725.31
2023-02-27T15:05:16.248Z,102724.50
2023-02-27T15:07:47.351Z,102724.84
2023-02-27T15:10:26.492Z,102725.47
2023-02-27T15:12:53.196Z,102719.31
2023-02-27T15:15:21.912Z,102719.31
2023-02-27T15:17:51.354Z,102707.75
2023-02-27T15:20:26.931Z,102712.38
2023-02-27T15:22:54.522Z,102720.97
2023-02-27T15:25:34.763Z,102716.34
2023-02-27T15:28:02.973Z,102726.41
2023-02-27T15:30:29.901Z,102719.91
2023-02-27T15:32:56.927Z,102717.63
2023-02-27T15:35:24.987Z,102722.94
2023-02-27T15:37:53.243Z,102722.50
2023-02-27T15:40:27.827Z,102725.25
2023-02-27T15:42:55.531Z,102726.56
2023-02-27T15:45:24.922Z,102726.94
2023-02-27T15:47:53.076Z,102729.75
2023-02-27T15:50:19.940Z,102726.56
2023-02-27T15:52:50.907Z,102721.88
2023-02-27T15:55:22.526Z,102736.75
2023-02-27T15:58:02.047Z,102728.03
2023-02-27T16:00:31.032Z,102730.91
2023-02-27T16:02:58.919Z,102730.09
2023-02-27T16:05:29.335Z,102720.91
2023-02-27T16:07:56.333Z,102723.09
2023-02-27T16:10:28.878Z,102714.84
2023-02-27T16:12:57.256Z,102720.06
2023-02-27T16:15:30.306Z,102723.53
2023-02-27T16:17:56.896Z,102713.28
2023-02-27T16:20:37.765Z,102712.91
2023-02-27T16:23:04.981Z,102710.44
2023-02-27T16:25:32.830Z,102702.81
2023-02-27T16:27:59.515Z,102697.03
2023-02-27T16:30:25.979Z,102704.13
2023-02-27T16:33:00.218Z,102702.09
2023-02-27T16:35:27.577Z,102707.25
2023-02-27T16:38:00.969Z,102705.22
2023-02-27T16:40:29.104Z,102703.47
2023-02-27T16:42:56.717Z,102703.13
2023-02-27T16:45:25.392Z,102706.66
2023-02-27T16:47:54.022Z,102698.66
2023-02-27T16:50:30.253Z,102708.53
2023-02-27T16:52:57.710Z,102701.59
2023-02-27T16:55:25.815Z,102694.50
2023-02-27T16:57:52.635Z,102695.88
2023-02-27T17:00:19.671Z,102685.31
2023-02-27T17:02:49.445Z,102681.41
2023-02-27T17:05:16.963Z,102667.22
2023-02-27T17:07:44.877Z,102675.69
2023-02-27T17:10:15.655Z,102688.38
2023-02-27T17:12:44.360Z,102694.69
2023-02-27T17:15:12.360Z,102685.97
2023-02-27T17:17:39.604Z,102686.53
2023-02-27T17:20:10.335Z,102697.06
2023-02-27T17:22:44.314Z,102684.84
2023-02-27T17:25:12.569Z,102693.78
2023-02-27T17:27:46.928Z,102692.03
2023-02-27T17:30:14.960Z,102705.09
2023-02-27T17:32:41.911Z,102696.50
2023-02-27T17:35:09.447Z,102691.63
2023-02-27T17:37:43.525Z,102690.81
2023-02-27T17:40:12.377Z,102691.34
2023-02-27T17:42:40.821Z,102692.13
2023-02-27T17:45:08.103Z,102688.47
2023-02-27T17:47:46.247Z,102697.22
2023-02-27T17:50:13.460Z,102687.19
2023-02-27T17:52:40.977Z,102691.91
2023-02-27T17:55:10.222Z,102699.47
2023-02-27T17:57:39.996Z,102702.44
2023-02-27T18:00:09.075Z,102694.03
2023-02-27T18:02:46.373Z,102695.25
2023-02-27T18:05:13.227Z,102706.13
2023-02-27T18:07:40.310Z,102704.41
2023-02-27T18:10:09.127Z,102711.78
2023-02-27T18:12:36.516Z,102712.41
2023-02-27T18:15:04.394Z,102716.81
2023-02-27T18:17:31.920Z,102717.00
2023-02-27T18:19:59.776Z,102719.91
2023-02-27T18:22:27.505Z,102717.97
2023-02-27T18:24:55.794Z,102717.88
2023-02-27T18:27:30.473Z,102720.16
2023-02-27T18:30:06.898Z,102729.88
2023-02-27T18:32:34.156Z,102720.31
2023-02-27T18:35:06.069Z,102738.69
2023-02-27T18:37:33.773Z,102735.31
2023-02-27T18:40:01.798Z,102738.94
2023-02-27T18:42:29.351Z,102743.28
2023-02-27T18:44:56.439Z,102735.44
2023-02-27T18:47:24.488Z,102739.31
2023-02-27T18:49:52.482Z,102739.31
2023-02-27T18:52:22.506Z,102736.63
2023-02-27T18:54:50.694Z,102743.19
2023-02-27T18:57:17.460Z,102739.28
2023-02-27T18:59:48.199Z,102748.53
2023-02-27T19:02:20.019Z,102751.66
2023-02-27T19:04:51.415Z,102738.09
2023-02-27T19:07:20.055Z,102740.63
2023-02-27T19:09:47.870Z,102743.81
2023-02-27T19:12:15.294Z,102746.94
2023-02-27T19:14:42.416Z,102738.56
2023-02-27T19:17:10.832Z,102737.84
2023-02-27T19:19:39.136Z,102735.88
2023-02-27T19:22:08.005Z,102738.81
2023-02-27T19:24:38.884Z,102741.66
2023-02-27T19:27:07.564Z,102738.00
2023-02-27T19:29:35.011Z,102741.38
2023-02-27T19:32:02.560Z,102742.91
2023-02-27T19:34:30.924Z,102742.47
2023-02-27T19:36:58.067Z,102746.91
2023-02-27T19:39:26.922Z,102755.41
2023-02-27T19:41:59.604Z,102756.50
2023-02-27T19:44:27.101Z,102762.34
2023-02-27T19:46:58.509Z,102751.78
2023-02-27T19:49:26.184Z,102748.28
2023-02-27T19:51:53.461Z,102751.84
2023-02-27T19:54:39.672Z,102756.28
2023-02-27T19:57:07.775Z,102754.91
2023-02-27T19:59:37.093Z,102757.22
2023-02-27T20:02:04.348Z,102754.81
2023-02-27T20:04:32.859Z,102763.06
2023-02-27T20:06:59.884Z,102759.66
2023-02-27T20:09:28.130Z,102756.63
2023-02-27T20:11:56.953Z,102754.09
2023-02-27T20:14:24.066Z,102758.44
2023-02-27T20:16:53.381Z,102749.81
2023-02-27T20:19:21.082Z,102748.75
2023-02-27T20:21:49.199Z,102755.31
2023-02-27T20:24:18.426Z,102747.56
2023-02-27T20:26:48.388Z,102760.38
2023-02-27T20:29:17.329Z,102761.13
2023-02-27T20:31:53.337Z,102756.84
2023-02-27T20:34:24.991Z,102758.06
2023-02-27T20:36:53.428Z,102761.25
2023-02-27T20:39:20.757Z,102750.81
2023-02-27T20:41:48.603Z,102756.75
2023-02-27T20:44:16.845Z,102759.06
2023-02-27T20:46:45.419Z,102755.31
2023-02-27T20:49:22.407Z,102757.00
2023-02-27T20:51:49.802Z,102763.53
2023-02-27T20:54:23.894Z,102755.06
2023-02-27T20:56:55.206Z,102764.50
2023-02-27T20:59:23.804Z,102759.06
2023-02-27T21:01:54.206Z,102762.59
2023-02-27T21:04:23.018Z,102765.22
2023-02-27T21:06:54.056Z,102773.84
2023-02-27T21:09:21.184Z,102761.00
2023-02-27T21:11:48.448Z,102750.84
2023-02-27T21:14:24.590Z,102749.38
2023-02-27T21:16:51.132Z,102752.50
2023-02-27T21:19:18.238Z,102758.00
2023-02-27T21:21:46.710Z,102757.28
2023-02-27T21:24:16.313Z,102760.66
2023-02-27T21:26:45.194Z,102756.16
2023-02-27T21:29:14.612Z,102754.09
2023-02-27T21:31:48.631Z,102749.69
2023-02-27T21:34:18.446Z,102747.66
2023-02-27T21:36:46.138Z,102754.56
2023-02-27T21:39:17.609Z,102759.56
2023-02-27T21:41:45.314Z,102761.91
2023-02-27T21:44:20.287Z,102766.94
2023-02-27T21:46:47.917Z,102759.66
2023-02-27T21:49:28.097Z,102758.47
2023-02-27T21:51:55.061Z,102760.25
2023-02-27T21:54:21.752Z,102764.66
2023-02-27T21:56:49.377Z,102765.84
2023-02-27T21:59:16.608Z,102760.59
2023-02-27T22:01:47.455Z,102760.84
2023-02-27T22:04:15.357Z,102770.53
2023-02-27T22:06:42.747Z,102762.22
2023-02-27T22:09:09.582Z,102761.31
2023-02-27T22:11:41.037Z,102763.81
2023-02-27T22:14:08.551Z,102763.31
2023-02-27T22:16:35.211Z,102767.16
2023-02-27T22:19:12.807Z,102769.75
2023-02-27T22:21:41.815Z,102766.69
2023-02-27T22:24:13.761Z,102765.38
2023-02-27T22:26:42.057Z,102767.94
2023-02-27T22:29:17.254Z,102758.50
2023-02-27T22:31:44.508Z,102756.38
2023-02-27T22:34:15.835Z,102757.81
2023-02-27T22:36:42.599Z,102763.13
2023-02-27T22:39:11.259Z,102761.81
2023-02-27T22:41:39.825Z,102765.19
2023-02-27T22:44:08.755Z,102776.72
2023-02-27T22:46:37.339Z,102774.75
2023-02-27T22:49:16.637Z,102776.00
2023-02-27T22:51:44.536Z,102781.53
2023-02-27T22:54:13.576Z,102780.94
2023-02-27T22:56:42.708Z,102786.41
2023-02-27T22:59:10.027Z,102794.25
2023-02-27T23:01:58.733Z,102787.97
2023-02-27T23:04:26.470Z,102789.47
2023-02-27T23:06:55.373Z,102796.63
2023-02-27T23:09:25.624Z,102790.66
2023-02-27T23:11:52.886Z,102785.75
2023-02-27T23:14:22.298Z,102791.97
2023-02-27T23:16:49.624Z,102795.19
2023-02-27T23:19:18.084Z,102798.28
2023-02-27T23:21:46.852Z,102798.59
2023-02-27T23:24:15.296Z,102807.13
2023-02-27T23:26:44.377Z,102795.78
2023-02-27T23:29:34.512Z,102804.63
2023-02-27T23:32:02.055Z,102801.16
2023-02-27T23:34:43.844Z,102806.84
2023-02-27T23:37:16.314Z,102804.69
2023-02-27T23:39:45.024Z,102810.06
2023-02-27T23:42:30.580Z,102798.81
2023-02-27T23:45:16.141Z,102807.06
2023-02-27T23:47:44.208Z,102809.75
2023-02-27T23:50:12.600Z,102810.19
2023-02-27T23:52:39.905Z,102801.09
2023-02-27T23:55:25.910Z,102803.94
2023-02-27T23:57:54.869Z,102801.31
